Time;durP1;ratioP1;P1;durP2;ratioP2;P2;SDS_P1;SDS_P2;PMS_P1;PMS_P2;Temp;Humidity;BMP_temperature;BMP_pressure;BME280_temperature;BME280_humidity;BME280_pressure;Samples;Min_cycle;Max_cycle;Signal;HPM_P1;HPM_P2
2021/03/27 08:14:29;;;;;;;3.20;0.40;;;10.40;99.90;;;;;;4747126;23;20241;-67
2021/03/27 08:17:38;;;;;;;5.63;0.70;;;10.50;99.90;;;;;;4917303;29;20241;-67
2021/03/27 08:20:31;;;;;;;7.90;0.43;;;10.70;99.90;;;;;;4914712;29;20257;-67
2021/03/27 08:23:25;;;;;;;3.20;0.97;;;11.00;99.90;;;;;;4917531;29;20273;-67
2021/03/27 08:26:26;;;;;;;3.73;0.60;;;10.80;99.90;;;;;;4917195;29;20269;-67
2021/03/27 08:29:28;;;;;;;4.70;0.80;;;10.70;99.90;;;;;;4917208;29;20224;-67
2021/03/27 08:32:44;;;;;;;6.00;0.97;;;10.50;99.90;;;;;;4916730;29;20691;-67
2021/03/27 08:35:23;;;;;;;2.27;0.90;;;11.00;99.90;;;;;;4896206;29;20214;-67
2021/03/27 08:38:23;;;;;;;2.63;0.67;;;11.00;99.90;;;;;;4896038;29;20237;-68
2021/03/27 08:41:20;;;;;;;1.80;0.50;;;10.90;99.90;;;;;;4914112;29;20237;-70
2021/03/27 08:44:37;;;;;;;7.20;0.90;;;10.80;99.90;;;;;;4917013;29;20217;-71
2021/03/27 08:47:36;;;;;;;5.17;0.63;;;10.80;99.90;;;;;;4877067;29;20219;-70
2021/03/27 08:50:33;;;;;;;2.17;1.03;;;10.80;99.90;;;;;;4916918;29;20229;-69
2021/03/27 08:53:23;;;;;;;2.00;0.60;;;10.80;99.90;;;;;;4916941;29;20256;-69
2021/03/27 08:56:22;;;;;;;2.40;0.60;;;10.60;99.90;;;;;;4916018;29;20285;-67
2021/03/27 08:58:58;;;;;;;5.23;0.77;;;11.00;99.90;;;;;;4899580;29;20213;-67
2021/03/27 09:01:59;;;;;;;3.57;0.53;;;11.20;99.90;;;;;;4916092;29;20323;-67
2021/03/27 09:04:38;;;;;;;3.43;0.50;;;10.80;99.90;;;;;;4916748;29;20229;-66
2021/03/27 09:07:30;;;;;;;3.90;0.90;;;10.80;99.90;;;;;;4916934;29;20345;-67
2021/03/27 09:10:29;;;;;;;5.60;0.60;;;10.60;99.90;;;;;;4916879;29;20213;-66
2021/03/27 09:13:33;;;;;;;4.37;0.57;;;10.30;99.90;;;;;;4916818;29;20210;-67
2021/03/27 09:16:36;;;;;;;6.27;1.10;;;10.20;99.90;;;;;;4893660;29;20225;-67
2021/03/27 09:19:43;;;;;;;3.80;0.60;;;9.80;99.90;;;;;;4916594;29;20264;-67
2021/03/27 09:22:42;;;;;;;3.07;0.70;;;9.60;99.90;;;;;;4906691;29;20213;-68
2021/03/27 09:25:20;;;;;;;5.20;1.10;;;9.40;99.90;;;;;;4912330;29;20213;-68
2021/03/27 09:28:11;;;;;;;4.57;0.83;;;9.20;99.90;;;;;;4916372;29;20213;-68
2021/03/27 09:30:50;;;;;;;2.77;0.60;;;9.10;99.90;;;;;;4916512;29;20237;-67
2021/03/27 09:33:25;;;;;;;2.90;0.70;;;9.00;99.90;;;;;;4916905;29;20213;-68
2021/03/27 09:36:06;;;;;;;4.47;0.90;;;9.10;99.90;;;;;;4916250;29;20669;-69
2021/03/27 09:38:42;;;;;;;1.53;0.70;;;9.30;99.90;;;;;;4916320;29;20209;-67
2021/03/27 09:41:45;;;;;;;1.97;0.60;;;9.40;99.90;;;;;;4916611;29;20233;-67
2021/03/27 09:44:36;;;;;;;2.10;0.67;;;9.30;99.90;;;;;;4916312;29;20624;-67
2021/03/27 09:47:13;;;;;;;2.37;0.67;;;9.30;99.90;;;;;;4916644;29;20561;-66
2021/03/27 09:49:58;;;;;;;2.10;0.50;;;9.40;99.90;;;;;;4916092;29;20561;-67
2021/03/27 09:52:51;;;;;;;7.00;0.90;;;9.40;99.90;;;;;;4919418;29;20205;-67
2021/03/27 09:55:51;;;;;;;4.43;0.80;;;9.60;99.90;;;;;;4920244;29;20217;-67
2021/03/27 09:58:26;;;;;;;4.57;0.83;;;9.70;99.90;;;;;;4910131;29;20212;-67
2021/03/27 10:01:10;;;;;;;1.33;1.13;;;9.70;99.90;;;;;;4919773;29;20236;-67
2021/03/27 10:03:42;;;;;;;1.47;0.90;;;9.70;99.90;;;;;;4919785;29;20229;-66
2021/03/27 10:06:44;;;;;;;5.90;0.67;;;9.50;99.90;;;;;;4920160;29;20217;-67
2021/03/27 10:09:20;;;;;;;3.37;0.60;;;9.30;99.90;;;;;;4920084;29;20240;-66
2021/03/27 10:11:56;;;;;;;1.90;0.33;;;9.20;99.90;;;;;;4919691;29;20229;-68
2021/03/27 10:14:26;;;;;;;0.90;0.40;;;9.30;99.90;;;;;;4919708;29;20264;-68
2021/03/27 10:16:58;;;;;;;3.67;0.57;;;9.40;99.90;;;;;;4919403;29;20241;-67
2021/03/27 10:19:34;;;;;;;1.57;0.40;;;9.70;99.90;;;;;;4919601;29;20691;-67
2021/03/27 10:22:17;;;;;;;1.90;0.60;;;9.90;99.90;;;;;;4919597;29;20237;-67
2021/03/27 10:24:45;;;;;;;1.27;0.43;;;10.30;99.90;;;;;;4919634;29;20683;-67
2021/03/27 10:27:20;;;;;;;1.43;0.43;;;10.60;99.10;;;;;;4919640;29;20213;-68
2021/03/27 10:30:01;;;;;;;4.00;0.93;;;10.80;97.80;;;;;;4919241;29;20216;-67
2021/03/27 10:33:05;;;;;;;1.87;0.60;;;10.90;96.90;;;;;;4919624;29;20206;-67
2021/03/27 10:36:09;;;;;;;1.43;0.50;;;11.10;97.20;;;;;;4919358;29;20553;-67
2021/03/27 10:38:53;;;;;;;1.33;0.70;;;11.20;96.70;;;;;;4919404;29;20217;-68
2021/03/27 10:41:25;;;;;;;2.93;0.70;;;11.30;96.60;;;;;;4919257;29;20230;-68
2021/03/27 10:44:02;;;;;;;3.60;0.67;;;11.40;97.60;;;;;;4919333;29;20699;-68
2021/03/27 10:46:36;;;;;;;2.33;0.50;;;11.50;97.00;;;;;;4915466;29;20217;-68
2021/03/27 10:49:23;;;;;;;5.27;0.63;;;11.80;95.90;;;;;;4918154;29;20213;-67
2021/03/27 10:52:27;;;;;;;3.33;0.70;;;12.00;94.90;;;;;;4917960;29;20709;-69
2021/03/27 10:55:23;;;;;;;2.13;0.40;;;12.20;95.60;;;;;;4917559;29;20213;-69
2021/03/27 10:58:20;;;;;;;3.00;0.73;;;12.00;95.00;;;;;;4898917;29;20249;-70
2021/03/27 11:00:57;;;;;;;4.33;0.40;;;12.00;96.10;;;;;;4891448;29;20226;-69
2021/03/27 11:04:01;;;;;;;1.93;0.40;;;12.30;94.90;;;;;;4898511;29;20214;-70
2021/03/27 11:07:12;;;;;;;0.60;0.30;;;12.20;93.80;;;;;;4908992;29;20224;-69
2021/03/27 11:10:23;;;;;;;2.00;0.50;;;12.30;93.30;;;;;;4916883;29;20220;-70
2021/03/27 11:13:27;;;;;;;1.83;0.40;;;12.60;94.10;;;;;;4915765;29;20208;-70
2021/03/27 11:16:30;;;;;;;2.03;0.40;;;12.60;92.70;;;;;;4908648;29;20257;-70
2021/03/27 11:19:23;;;;;;;3.00;0.60;;;12.30;93.10;;;;;;4902612;29;20668;-70
2021/03/27 11:22:26;;;;;;;1.40;0.40;;;12.10;91.80;;;;;;4917242;29;20229;-72
2021/03/27 11:25:17;;;;;;;1.40;0.60;;;11.80;91.90;;;;;;4889532;29;20214;-70
2021/03/27 11:28:00;;;;;;;3.30;0.60;;;11.60;92.20;;;;;;4898095;29;20670;-70
2021/03/27 11:30:36;;;;;;;1.70;0.30;;;11.20;92.70;;;;;;4897489;29;20701;-77
2021/03/27 11:33:12;;;;;;;1.90;0.40;;;11.00;93.00;;;;;;4916374;29;20209;-70
2021/03/27 11:35:44;;;;;;;1.93;0.37;;;11.00;92.10;;;;;;4916911;29;20220;-67
2021/03/27 11:38:23;;;;;;;1.80;0.33;;;11.20;92.10;;;;;;4916406;29;20248;-71
2021/03/27 11:41:00;;;;;;;0.90;0.30;;;11.00;90.60;;;;;;4916910;29;20284;-70
2021/03/27 11:43:50;;;;;;;1.80;0.20;;;10.90;90.70;;;;;;4916063;29;20542;-70
2021/03/27 11:46:23;;;;;;;0.60;0.30;;;11.40;91.30;;;;;;4916158;29;20214;-72
2021/03/27 11:48:54;;;;;;;2.93;0.50;;;11.70;90.70;;;;;;4915903;29;20229;-68
2021/03/27 11:51:28;;;;;;;3.80;0.43;;;11.80;91.30;;;;;;4915981;29;20237;-70
2021/03/27 11:54:04;;;;;;;1.77;0.30;;;11.70;90.80;;;;;;4916269;29;20209;-67
2021/03/27 11:56:43;;;;;;;1.00;0.40;;;11.70;90.20;;;;;;4917831;29;20236;-68
2021/03/27 12:00:47;;;;;;;1.30;0.40;;;11.60;90.10;;;;;;4917697;29;20217;-68
2021/03/27 12:02:50;;;;;;;1.13;0.30;;;11.50;90.00;;;;;;4917960;29;20679;-68
2021/03/27 12:05:24;;;;;;;1.27;0.47;;;11.60;89.70;;;;;;4917676;29;20637;-68
2021/03/27 12:07:59;;;;;;;2.50;0.60;;;11.90;90.10;;;;;;4918074;29;20669;-68
2021/03/27 12:10:37;;;;;;;1.53;0.30;;;12.00;88.80;;;;;;4917735;29;20236;-68
2021/03/27 12:13:11;;;;;;;3.23;0.43;;;12.10;89.20;;;;;;4917716;29;20262;-68
2021/03/27 12:15:47;;;;;;;3.47;0.47;;;12.10;90.40;;;;;;4917116;29;20212;-69
2021/03/27 12:18:18;;;;;;;4.40;0.73;;;12.30;90.50;;;;;;4917876;29;20249;-69
2021/03/27 12:20:59;;;;;;;4.50;0.37;;;12.40;90.00;;;;;;4917824;29;20229;-69
2021/03/27 12:23:39;;;;;;;1.53;0.47;;;12.50;90.10;;;;;;4918057;29;20209;-69
2021/03/27 12:26:18;;;;;;;3.60;0.67;;;12.90;89.10;;;;;;4917731;29;20217;-68
2021/03/27 12:28:52;;;;;;;2.57;0.70;;;12.70;85.20;;;;;;4917638;29;20209;-69
2021/03/27 12:31:33;;;;;;;5.10;0.43;;;12.60;85.00;;;;;;4917154;29;20230;-69
2021/03/27 12:34:15;;;;;;;2.17;0.60;;;12.40;88.10;;;;;;4917610;29;20645;-68
2021/03/27 12:36:51;;;;;;;1.40;0.20;;;12.50;86.40;;;;;;4917318;29;20241;-68
2021/03/27 12:39:27;;;;;;;2.00;0.50;;;12.70;83.60;;;;;;4917036;29;20213;-68
2021/03/27 12:42:10;;;;;;;0.97;0.40;;;12.70;84.70;;;;;;4917113;29;20244;-70
2021/03/27 12:44:42;;;;;;;1.43;0.50;;;12.80;83.30;;;;;;4917234;29;20209;-69
2021/03/27 12:47:30;;;;;;;3.40;0.50;;;12.80;79.10;;;;;;4917237;29;20213;-69
2021/03/27 12:50:25;;;;;;;1.53;0.40;;;12.60;82.90;;;;;;4916943;29;20209;-68
2021/03/27 12:53:38;;;;;;;1.90;0.40;;;12.50;83.10;;;;;;4908651;29;20217;-68
2021/03/27 12:56:14;;;;;;;0.50;0.30;;;12.40;83.70;;;;;;4894448;29;20244;-67
2021/03/27 12:58:50;;;;;;;1.67;0.30;;;12.40;82.30;;;;;;4916874;29;20217;-68
2021/03/27 13:01:47;;;;;;;1.20;0.57;;;12.30;83.50;;;;;;4916798;29;20234;-68
2021/03/27 13:04:37;;;;;;;1.50;0.30;;;12.20;85.70;;;;;;4916926;29;20221;-67
2021/03/27 13:07:16;;;;;;;1.03;0.40;;;12.30;85.50;;;;;;4917277;29;20214;-68
2021/03/27 13:10:02;;;;;;;3.17;0.63;;;12.40;86.70;;;;;;4916613;29;20704;-68
2021/03/27 13:12:40;;;;;;;2.43;0.30;;;12.50;86.40;;;;;;4916483;29;20305;-68
2021/03/27 13:15:41;;;;;;;1.50;0.63;;;12.50;83.20;;;;;;4916861;29;20672;-69
2021/03/27 13:18:43;;;;;;;1.87;0.67;;;12.50;84.40;;;;;;4916905;29;20244;-68
2021/03/27 13:21:25;;;;;;;2.03;0.50;;;12.60;84.50;;;;;;4916473;29;20240;-68
2021/03/27 13:23:58;;;;;;;2.40;0.50;;;12.80;85.50;;;;;;4916740;29;20216;-68
2021/03/27 13:26:26;;;;;;;6.83;1.33;;;12.80;86.20;;;;;;4920070;29;20225;-69
2021/03/27 13:28:59;;;;;;;2.33;0.67;;;12.70;86.30;;;;;;4920671;29;20237;-69
2021/03/27 13:31:36;;;;;;;2.50;0.53;;;12.80;88.00;;;;;;4920417;29;20237;-68
2021/03/27 13:34:10;;;;;;;4.53;0.70;;;12.90;86.40;;;;;;4920549;29;20208;-68
2021/03/27 13:36:40;;;;;;;4.70;0.60;;;12.70;86.00;;;;;;4920511;29;20573;-68
2021/03/27 13:39:28;;;;;;;3.10;1.17;;;12.40;87.70;;;;;;4920146;29;20545;-69
2021/03/27 13:42:24;;;;;;;1.30;0.60;;;12.30;88.00;;;;;;4920183;29;20577;-68
2021/03/27 13:44:56;;;;;;;1.07;0.40;;;12.40;88.40;;;;;;4920398;29;20261;-69
2021/03/27 13:47:42;;;;;;;3.03;0.53;;;12.50;90.00;;;;;;4920319;29;20220;-70
2021/03/27 13:50:50;;;;;;;6.33;0.80;;;12.60;90.00;;;;;;4920261;29;20337;-68
2021/03/27 13:53:41;;;;;;;1.53;0.60;;;12.70;89.30;;;;;;4915021;29;20668;-68
2021/03/27 13:56:27;;;;;;;3.33;0.60;;;12.60;90.00;;;;;;4920053;29;20209;-68
2021/03/27 13:59:21;;;;;;;1.97;0.70;;;12.60;86.30;;;;;;4919866;29;20265;-68
2021/03/27 14:02:20;;;;;;;2.77;0.60;;;12.40;86.00;;;;;;4920016;29;20276;-68
2021/03/27 14:04:52;;;;;;;0.60;0.23;;;12.50;86.30;;;;;;4919983;29;20221;-68
2021/03/27 14:07:30;;;;;;;2.03;0.67;;;12.60;85.00;;;;;;4919977;29;20237;-69
2021/03/27 14:10:00;;;;;;;2.30;0.47;;;12.70;86.50;;;;;;4920452;29;20220;-68
2021/03/27 14:12:32;;;;;;;2.77;0.60;;;12.90;85.50;;;;;;4920032;29;20261;-68
2021/03/27 14:15:21;;;;;;;3.63;0.53;;;12.90;86.80;;;;;;4919742;29;20255;-69
2021/03/27 14:18:04;;;;;;;1.27;0.40;;;12.80;85.00;;;;;;4919510;29;20723;-69
2021/03/27 14:20:42;;;;;;;3.63;0.47;;;12.60;85.30;;;;;;4919770;29;20252;-68
2021/03/27 14:23:30;;;;;;;2.57;0.40;;;12.30;85.00;;;;;;4919578;29;20728;-69
2021/03/27 14:26:21;;;;;;;2.07;0.40;;;12.30;85.00;;;;;;4919652;29;20213;-69
2021/03/27 14:28:54;;;;;;;1.30;0.40;;;12.50;85.10;;;;;;4917599;29;20221;-70
2021/03/27 14:31:45;;;;;;;1.43;0.80;;;12.50;83.90;;;;;;4919421;29;20240;-70
2021/03/27 14:34:27;;;;;;;2.63;0.43;;;12.60;84.70;;;;;;4917466;29;20209;-70
2021/03/27 14:37:11;;;;;;;1.70;0.40;;;12.50;84.80;;;;;;4918756;29;20247;-68
2021/03/27 14:39:50;;;;;;;2.63;0.57;;;12.50;83.20;;;;;;4919290;29;20672;-69
2021/03/27 14:42:35;;;;;;;1.10;0.57;;;12.50;84.10;;;;;;4919316;29;20261;-69
2021/03/27 14:45:14;;;;;;;3.70;0.50;;;12.40;83.50;;;;;;4919444;29;20217;-70
2021/03/27 14:48:19;;;;;;;2.43;0.50;;;12.30;84.30;;;;;;4919050;29;20668;-70
2021/03/27 14:50:53;;;;;;;0.53;0.20;;;12.10;84.10;;;;;;4918991;29;20233;-70
2021/03/27 14:53:29;;;;;;;2.20;0.40;;;12.00;84.90;;;;;;4919161;29;20221;-70
2021/03/27 14:56:02;;;;;;;1.87;0.50;;;12.00;85.40;;;;;;4919277;29;20216;-67
2021/03/27 14:58:42;;;;;;;2.70;0.60;;;11.90;85.40;;;;;;4918958;29;20241;-68
2021/03/27 15:01:12;;;;;;;0.67;0.40;;;11.80;86.30;;;;;;4919128;29;20688;-68
2021/03/27 15:03:45;;;;;;;1.97;0.40;;;11.80;85.70;;;;;;4919179;29;20218;-68
2021/03/27 15:06:37;;;;;;;3.93;0.50;;;11.90;86.40;;;;;;4918960;29;20209;-67
2021/03/27 15:09:07;;;;;;;2.13;0.40;;;11.90;85.80;;;;;;4918840;29;20205;-69
2021/03/27 15:11:46;;;;;;;2.90;0.70;;;12.00;86.20;;;;;;4918859;29;20562;-69
2021/03/27 15:14:22;;;;;;;2.73;0.50;;;11.90;85.60;;;;;;4918807;29;20217;-68
2021/03/27 15:17:00;;;;;;;1.70;0.60;;;11.90;86.60;;;;;;4918403;29;20237;-68
2021/03/27 15:20:22;;;;;;;1.73;0.40;;;11.90;86.60;;;;;;4918629;29;20209;-68
2021/03/27 15:22:54;;;;;;;1.53;0.40;;;11.90;87.00;;;;;;4879113;29;20211;-68
2021/03/27 15:28:23;;;;;;;4.20;0.63;;;12.00;88.00;;;;;;4910624;29;20224;-69
2021/03/27 15:30:56;;;;;;;2.00;0.70;;;12.00;89.10;;;;;;4918486;29;20296;-69
2021/03/27 15:33:36;;;;;;;1.30;0.60;;;12.10;89.50;;;;;;4918565;29;20213;-69
2021/03/27 15:36:09;;;;;;;1.77;0.60;;;12.10;90.00;;;;;;4918505;29;20216;-68
2021/03/27 15:38:46;;;;;;;3.60;0.73;;;12.00;89.60;;;;;;4918443;29;20672;-68
2021/03/27 15:41:21;;;;;;;4.20;0.70;;;12.00;90.40;;;;;;4918559;29;20240;-68
2021/03/27 15:44:01;;;;;;;2.37;0.47;;;12.10;90.00;;;;;;4918281;29;20600;-68
2021/03/27 15:46:32;;;;;;;0.87;0.33;;;12.20;87.80;;;;;;4914380;29;20573;-77
2021/03/27 15:49:16;;;;;;;0.90;0.37;;;12.20;86.40;;;;;;4926781;29;20687;-75
2021/03/27 15:51:51;;;;;;;5.27;0.50;;;12.20;86.90;;;;;;4935862;29;20224;-75
2021/03/27 15:54:35;;;;;;;2.10;0.50;;;12.20;87.00;;;;;;4935596;29;20211;-73
2021/03/27 15:57:24;;;;;;;2.10;0.50;;;12.10;86.60;;;;;;4921618;29;20573;-77
2021/03/27 15:59:53;;;;;;;1.87;0.60;;;12.00;86.20;;;;;;4916923;29;20217;-70
2021/03/27 16:02:41;;;;;;;3.13;0.67;;;12.10;87.20;;;;;;4917924;29;20221;-70
2021/03/27 16:05:24;;;;;;;3.03;0.83;;;12.20;87.90;;;;;;4917350;29;20517;-71
2021/03/27 16:07:55;;;;;;;3.67;0.77;;;12.20;87.30;;;;;;4917661;29;20213;-72
2021/03/27 16:10:25;;;;;;;3.23;0.80;;;12.30;88.20;;;;;;4913120;29;20711;-71
2021/03/27 16:13:13;;;;;;;1.97;0.60;;;12.40;87.80;;;;;;4916519;29;20225;-68
2021/03/27 16:15:47;;;;;;;1.60;0.50;;;12.50;86.00;;;;;;4914462;29;20209;-71
2021/03/27 16:18:58;;;;;;;3.37;0.67;;;12.40;85.90;;;;;;4917436;29;20296;-74
2021/03/27 16:21:38;;;;;;;3.37;0.80;;;12.30;85.30;;;;;;4877484;29;20235;-71
2021/03/27 16:24:14;;;;;;;3.50;0.63;;;12.10;86.20;;;;;;4915521;29;20265;-69
2021/03/27 16:26:53;;;;;;;6.17;1.10;;;12.10;87.00;;;;;;4917316;29;20607;-78
2021/03/27 16:29:37;;;;;;;4.73;0.67;;;12.10;87.00;;;;;;4917404;29;20293;-71
2021/03/27 16:32:08;;;;;;;4.63;0.50;;;11.90;86.20;;;;;;4917126;29;20229;-69
2021/03/27 16:34:52;;;;;;;2.90;0.80;;;11.70;86.00;;;;;;4917242;29;20230;-68
2021/03/27 16:37:29;;;;;;;2.67;0.77;;;11.70;85.60;;;;;;4916580;29;20778;-69
2021/03/27 16:40:10;;;;;;;2.73;0.50;;;11.50;86.20;;;;;;4917455;29;20217;-68
2021/03/27 16:42:57;;;;;;;3.77;0.50;;;11.50;86.50;;;;;;4917125;29;20220;-69
2021/03/27 16:45:37;;;;;;;2.67;0.73;;;11.40;86.20;;;;;;4916933;29;20206;-69
2021/03/27 16:48:16;;;;;;;2.20;0.60;;;11.40;86.20;;;;;;4917016;29;20280;-69
2021/03/27 16:50:57;;;;;;;1.33;0.50;;;11.40;87.00;;;;;;4917136;29;20234;-68
2021/03/27 16:53:29;;;;;;;2.80;0.57;;;11.30;86.90;;;;;;4917021;29;20661;-69
2021/03/27 16:56:17;;;;;;;4.77;0.90;;;11.30;86.30;;;;;;4916633;29;20669;-69
2021/03/27 16:58:51;;;;;;;4.80;1.23;;;11.40;87.20;;;;;;4916926;29;20241;-69
2021/03/27 17:01:28;;;;;;;4.53;0.80;;;11.30;86.80;;;;;;4916527;29;20574;-69
2021/03/27 17:04:07;;;;;;;3.63;0.70;;;11.30;88.20;;;;;;4916921;29;20205;-69
2021/03/27 17:06:41;;;;;;;2.80;0.87;;;11.20;87.90;;;;;;4916979;29;20224;-69
2021/03/27 17:09:21;;;;;;;2.60;0.70;;;11.20;88.00;;;;;;4916916;29;20213;-69
2021/03/27 17:12:17;;;;;;;2.03;0.73;;;10.90;88.10;;;;;;4916739;29;20281;-69
2021/03/27 17:14:59;;;;;;;3.67;0.80;;;10.90;89.00;;;;;;4913248;29;20239;-68
2021/03/27 17:17:42;;;;;;;6.77;0.80;;;10.80;89.50;;;;;;4915389;29;20243;-69
2021/03/27 17:20:25;;;;;;;2.00;0.77;;;10.70;90.30;;;;;;4916814;29;20280;-70
2021/03/27 17:23:30;;;;;;;5.30;1.20;;;10.50;90.40;;;;;;4916716;29;20210;-69
2021/03/27 17:26:20;;;;;;;4.77;0.67;;;10.50;91.20;;;;;;4915071;29;20209;-69
2021/03/27 17:28:53;;;;;;;1.33;0.50;;;10.40;91.20;;;;;;4916247;29;20213;-69
2021/03/27 17:31:26;;;;;;;5.07;1.00;;;10.40;91.20;;;;;;4915537;29;20285;-68
2021/03/27 17:34:17;;;;;;;2.03;0.60;;;10.40;91.70;;;;;;4915755;29;20205;-68
2021/03/27 17:37:10;;;;;;;5.23;0.67;;;10.40;92.00;;;;;;4897162;29;20218;-68
2021/03/27 17:39:44;;;;;;;3.60;0.60;;;10.40;92.20;;;;;;4895284;29;20225;-68
2021/03/27 17:42:27;;;;;;;4.43;0.63;;;10.40;92.40;;;;;;4897587;29;20222;-68
2021/03/27 17:45:08;;;;;;;4.93;0.90;;;10.30;92.70;;;;;;4903370;29;20695;-68
2021/03/27 17:47:41;;;;;;;2.87;0.63;;;10.20;92.90;;;;;;4915866;29;20205;-68
2021/03/27 17:50:15;;;;;;;3.43;0.87;;;10.20;93.40;;;;;;4915718;29;20232;-69
2021/03/27 17:52:47;;;;;;;2.87;1.00;;;10.20;93.40;;;;;;4915995;29;20209;-69
2021/03/27 17:55:22;;;;;;;2.63;0.80;;;10.20;93.70;;;;;;4915852;29;20260;-77
2021/03/27 17:57:58;;;;;;;2.07;0.70;;;10.20;94.00;;;;;;4916005;29;20292;-74
2021/03/27 18:00:32;;;;;;;3.93;1.00;;;10.10;94.10;;;;;;4915379;29;20723;-69
2021/03/27 18:03:02;;;;;;;3.83;0.93;;;10.00;94.40;;;;;;4915906;29;20214;-70
2021/03/27 18:05:35;;;;;;;5.63;1.27;;;10.00;94.40;;;;;;4915743;29;20209;-70
2021/03/27 18:08:02;;;;;;;5.07;0.80;;;9.90;95.10;;;;;;4915588;29;20215;-70
2021/03/27 18:10:32;;;;;;;0.93;0.50;;;9.80;95.30;;;;;;4915678;29;20249;-69
2021/03/27 18:13:12;;;;;;;3.00;0.70;;;9.80;95.40;;;;;;4917106;29;20210;-69
2021/03/27 18:15:51;;;;;;;5.90;0.90;;;9.70;95.70;;;;;;4919032;29;20209;-69
2021/03/27 18:18:27;;;;;;;5.23;0.70;;;9.70;95.70;;;;;;4919278;29;20237;-69
2021/03/27 18:21:18;;;;;;;3.23;0.67;;;9.70;96.10;;;;;;4919068;29;20715;-71
2021/03/27 18:24:02;;;;;;;3.17;1.20;;;9.70;96.20;;;;;;4918933;29;20661;-72
2021/03/27 18:26:39;;;;;;;1.60;0.97;;;9.60;96.10;;;;;;4900217;29;20210;-85
2021/03/27 18:29:21;;;;;;;5.93;0.90;;;9.50;96.50;;;;;;4902060;29;20209;-72
2021/03/27 18:31:56;;;;;;;1.57;0.90;;;9.50;96.50;;;;;;4917268;29;20226;-67
2021/03/27 18:34:26;;;;;;;5.50;0.93;;;9.50;96.90;;;;;;4918607;29;20205;-67
2021/03/27 18:36:56;;;;;;;3.27;1.20;;;9.50;96.90;;;;;;4918435;29;20220;-68
2021/03/27 18:39:29;;;;;;;7.33;1.50;;;9.40;97.50;;;;;;4918356;29;20213;-67
2021/03/27 18:42:04;;;;;;;6.10;1.07;;;9.20;97.90;;;;;;4918965;29;20230;-67
2021/03/27 18:44:32;;;;;;;5.07;1.33;;;9.20;98.50;;;;;;4918484;29;20741;-67
2021/03/27 18:47:01;;;;;;;10.17;1.60;;;9.20;99.00;;;;;;4918681;29;20221;-68
2021/03/27 18:49:31;;;;;;;3.33;1.20;;;9.10;99.40;;;;;;4919082;29;20213;-68
2021/03/27 18:52:06;;;;;;;6.97;1.70;;;9.10;99.80;;;;;;4918906;29;20233;-68
2021/03/27 18:54:41;;;;;;;3.17;1.13;;;9.00;99.90;;;;;;4918239;29;20205;-67
2021/03/27 18:57:24;;;;;;;2.60;1.00;;;9.00;99.90;;;;;;4918924;29;20241;-68
2021/03/27 18:59:58;;;;;;;3.90;0.97;;;9.00;99.90;;;;;;4918678;29;20210;-68
2021/03/27 19:02:26;;;;;;;4.93;1.63;;;8.90;99.90;;;;;;4918590;29;20205;-68
2021/03/27 19:05:00;;;;;;;3.43;1.20;;;8.90;99.90;;;;;;4917931;29;20213;-68
2021/03/27 19:07:31;;;;;;;4.37;1.30;;;9.00;99.90;;;;;;4918409;29;20209;-69
2021/03/27 19:10:02;;;;;;;5.90;1.40;;;9.00;99.90;;;;;;4918137;29;20213;-69
2021/03/27 19:12:33;;;;;;;5.30;1.23;;;9.00;99.90;;;;;;4918365;29;20581;-68
2021/03/27 19:15:03;;;;;;;2.70;0.90;;;9.10;99.90;;;;;;4917596;29;20229;-68
2021/03/27 19:17:34;;;;;;;5.50;1.63;;;9.10;99.90;;;;;;4917787;29;20238;-68
2021/03/27 19:20:08;;;;;;;7.53;1.20;;;9.10;99.90;;;;;;4917947;29;20247;-67
2021/03/27 19:22:39;;;;;;;4.67;1.60;;;9.20;99.90;;;;;;4918028;29;20214;-66
2021/03/27 19:25:11;;;;;;;7.70;1.60;;;9.20;99.90;;;;;;4918162;29;20367;-67
2021/03/27 19:27:44;;;;;;;8.57;1.97;;;9.20;99.90;;;;;;4918170;29;20213;-66
2021/03/27 19:30:25;;;;;;;7.17;2.10;;;9.20;99.90;;;;;;4917617;29;20285;-67
2021/03/27 19:33:05;;;;;;;5.40;2.03;;;9.20;99.90;;;;;;4917778;29;20221;-67
2021/03/27 19:35:37;;;;;;;8.27;1.43;;;9.30;99.90;;;;;;4917915;29;20213;-67
2021/03/27 19:38:08;;;;;;;7.17;1.83;;;9.40;99.90;;;;;;4917678;29;20245;-67
2021/03/27 19:40:48;;;;;;;3.97;1.00;;;9.40;99.90;;;;;;4917273;29;20240;-68
2021/03/27 19:43:24;;;;;;;1.67;1.10;;;9.30;99.90;;;;;;4917888;29;20607;-68
2021/03/27 19:45:54;;;;;;;6.33;1.33;;;9.20;99.90;;;;;;4917535;29;20257;-67
2021/03/27 19:48:32;;;;;;;9.70;1.00;;;9.20;99.90;;;;;;4917907;29;20217;-69
2021/03/27 19:51:09;;;;;;;5.00;1.53;;;9.10;99.90;;;;;;4917445;29;20267;-74
2021/03/27 19:53:46;;;;;;;4.03;1.53;;;9.10;99.90;;;;;;4917860;29;20212;-68
2021/03/27 19:56:17;;;;;;;7.53;1.53;;;9.00;99.90;;;;;;4917109;29;20216;-68
2021/03/27 19:58:47;;;;;;;8.73;1.37;;;9.00;99.90;;;;;;4911944;29;20241;-69
2021/03/27 20:01:30;;;;;;;7.70;1.70;;;9.00;99.90;;;;;;4907057;29;20748;-69
2021/03/27 20:04:04;;;;;;;7.77;1.57;;;9.00;99.90;;;;;;4906168;29;20202;-69
2021/03/27 20:06:34;;;;;;;5.03;1.40;;;9.00;99.90;;;;;;4903241;29;20275;-69
2021/03/27 20:09:42;;;;;;;4.70;1.40;;;9.00;99.90;;;;;;4904965;29;20705;-69
2021/03/27 20:12:21;;;;;;;3.73;1.20;;;9.10;99.90;;;;;;4879054;29;20675;-69
2021/03/27 20:15:01;;;;;;;5.30;1.30;;;9.10;99.90;;;;;;4907674;29;20252;-69
2021/03/27 20:17:32;;;;;;;4.40;1.07;;;9.10;99.90;;;;;;4910775;29;20241;-69
2021/03/27 20:20:13;;;;;;;3.87;1.33;;;9.10;99.90;;;;;;4905731;29;20221;-69
2021/03/27 20:22:43;;;;;;;5.63;1.47;;;9.00;99.90;;;;;;4906010;29;20209;-70
2021/03/27 20:25:28;;;;;;;5.80;1.00;;;9.10;99.90;;;;;;4907737;29;20213;-69
2021/03/27 20:28:05;;;;;;;6.67;1.27;;;9.00;99.90;;;;;;4913550;29;20213;-69
2021/03/27 20:30:37;;;;;;;4.97;1.23;;;9.00;99.90;;;;;;4912611;29;20244;-69
2021/03/27 20:33:25;;;;;;;4.13;1.30;;;9.00;99.90;;;;;;4908912;29;20292;-70
2021/03/27 20:35:58;;;;;;;6.87;1.10;;;8.90;99.90;;;;;;4912664;29;20217;-69
2021/03/27 20:38:49;;;;;;;3.37;0.90;;;8.80;99.90;;;;;;4910100;29;20619;-70
2021/03/27 20:41:37;;;;;;;1.60;0.97;;;8.70;99.90;;;;;;4907892;29;20266;-70
2021/03/27 20:44:15;;;;;;;4.53;1.10;;;8.50;99.90;;;;;;4904278;29;20210;-69
2021/03/27 20:46:51;;;;;;;4.80;0.80;;;8.50;99.90;;;;;;4907847;29;20206;-70
2021/03/27 20:49:37;;;;;;;4.20;1.30;;;8.50;99.90;;;;;;4908198;29;20202;-70
2021/03/27 20:52:16;;;;;;;6.97;1.20;;;8.40;99.90;;;;;;4904768;29;20710;-70
2021/03/27 20:54:54;;;;;;;4.47;1.37;;;8.40;99.90;;;;;;4909949;29;20208;-70
2021/03/27 20:57:23;;;;;;;5.83;1.00;;;8.50;99.90;;;;;;4907850;29;20230;-69
2021/03/27 21:00:02;;;;;;;2.53;0.83;;;8.50;99.90;;;;;;4904979;29;20567;-70
2021/03/27 21:02:48;;;;;;;4.27;1.23;;;8.40;99.90;;;;;;4911884;29;20210;-70
2021/03/27 21:05:24;;;;;;;3.00;1.10;;;8.40;99.90;;;;;;4906756;29;20218;-69
2021/03/27 21:07:53;;;;;;;4.60;1.27;;;8.40;99.90;;;;;;4904722;29;20503;-70
2021/03/27 21:10:26;;;;;;;3.40;1.00;;;8.40;99.90;;;;;;4915439;29;20230;-69
2021/03/27 21:13:21;;;;;;;4.90;0.90;;;8.40;99.90;;;;;;4909674;29;20213;-69
2021/03/27 21:16:08;;;;;;;3.83;1.03;;;8.30;99.90;;;;;;4905222;29;20220;-69
2021/03/27 21:18:40;;;;;;;4.57;0.90;;;8.20;99.90;;;;;;4908282;29;20600;-69
2021/03/27 21:21:19;;;;;;;2.17;0.70;;;8.20;99.90;;;;;;4903123;29;20230;-70
2021/03/27 21:23:51;;;;;;;8.13;1.17;;;8.20;99.90;;;;;;4912418;29;20215;-70
2021/03/27 21:26:21;;;;;;;3.13;0.90;;;8.20;99.90;;;;;;4907072;29;20221;-70
2021/03/27 21:29:30;;;;;;;6.40;0.87;;;8.20;99.90;;;;;;4906165;29;20202;-70
2021/03/27 21:32:06;;;;;;;1.57;0.90;;;8.10;99.90;;;;;;4906646;29;20251;-69
2021/03/27 21:34:47;;;;;;;2.47;1.03;;;8.10;99.90;;;;;;4907609;29;20665;-70
2021/03/27 21:37:28;;;;;;;6.77;1.00;;;8.10;99.90;;;;;;4904327;29;20238;-70
2021/03/27 21:40:00;;;;;;;3.67;1.00;;;8.10;99.90;;;;;;4902152;29;20218;-70
2021/03/27 21:42:42;;;;;;;6.73;1.10;;;8.10;99.90;;;;;;4913271;29;20214;-70
2021/03/27 21:45:15;;;;;;;3.23;0.80;;;8.10;99.90;;;;;;4906415;29;20218;-70
2021/03/27 21:48:19;;;;;;;2.93;0.80;;;8.10;99.90;;;;;;4910058;29;20201;-70
2021/03/27 21:51:14;;;;;;;2.30;0.80;;;8.10;99.90;;;;;;4911970;29;20688;-70
2021/03/27 21:54:10;;;;;;;2.97;0.90;;;8.00;99.90;;;;;;4904503;29;20206;-70
2021/03/27 21:56:55;;;;;;;3.07;0.70;;;7.90;99.90;;;;;;4906778;29;20206;-70
2021/03/27 21:59:29;;;;;;;1.53;0.70;;;7.80;99.90;;;;;;4907905;29;20206;-70
2021/03/27 22:02:13;;;;;;;2.27;0.60;;;7.60;99.90;;;;;;4912149;29;20236;-70
2021/03/27 22:05:05;;;;;;;5.00;0.80;;;7.60;99.90;;;;;;4912051;29;20209;-70
2021/03/27 22:07:43;;;;;;;2.00;0.87;;;7.60;99.90;;;;;;4907757;29;20214;-70
2021/03/27 22:10:21;;;;;;;3.30;0.70;;;7.70;99.90;;;;;;4910817;29;20288;-70
2021/03/27 22:13:20;;;;;;;3.17;1.00;;;7.70;99.90;;;;;;4910369;29;20209;-70
2021/03/27 22:16:01;;;;;;;4.07;1.00;;;7.70;99.90;;;;;;4914726;29;20202;-70
